sensor_id;sensor_type;location;lat;lon;timestamp;pressure;altitude;pressure_sealevel;temperature;humidity
17383;BME280;8809;51.892;8.384;2023-04-10T14:35:39;100419.91;;;19.67;42.24
17383;BME280;8809;51.892;8.384;2023-04-10T14:38:08;100419.03;;;19.79;41.63
17383;BME280;8809;51.892;8.384;2023-04-10T14:40:35;100420.78;;;19.74;41.35
17383;BME280;8809;51.892;8.384;2023-04-10T14:43:02;100425.19;;;19.72;40.18
17383;BME280;8809;51.892;8.384;2023-04-10T14:45:30;100424.28;;;19.63;39.28
17383;BME280;8809;51.892;8.384;2023-04-10T14:47:57;100414.56;;;19.62;40.35
17383;BME280;8809;51.892;8.384;2023-04-10T14:50:24;100416.34;;;19.63;39.61
17383;BME280;8809;51.892;8.384;2023-04-10T14:52:53;100404.00;;;19.62;39.57
17383;BME280;8809;51.892;8.384;2023-04-10T14:55:20;100386.38;;;19.69;43.31
17383;BME280;8809;51.892;8.384;2023-04-10T14:57:47;100387.22;;;19.63;40.78
17383;BME280;8809;51.892;8.384;2023-04-10T15:00:16;100377.47;;;19.38;41.03
17383;BME280;8809;51.892;8.384;2023-04-10T15:02:43;100380.91;;;19.10;40.38
17383;BME280;8809;51.892;8.384;2023-04-10T15:05:11;100372.91;;;18.98;41.11
17383;BME280;8809;51.892;8.384;2023-04-10T15:07:38;100363.16;;;18.81;41.09
17383;BME280;8809;51.892;8.384;2023-04-10T15:10:08;100359.59;;;18.70;40.15
17383;BME280;8809;51.892;8.384;2023-04-10T15:12:35;100355.06;;;18.51;42.24
17383;BME280;8809;51.892;8.384;2023-04-10T15:15:03;100340.94;;;18.47;45.53
17383;BME280;8809;51.892;8.384;2023-04-10T15:17:30;100332.97;;;18.35;43.89
17383;BME280;8809;51.892;8.384;2023-04-10T15:19:57;100325.81;;;18.21;43.52
17383;BME280;8809;51.892;8.384;2023-04-10T15:22:25;100327.56;;;18.15;43.66
17383;BME280;8809;51.892;8.384;2023-04-10T15:24:51;100312.56;;;18.11;44.84
17383;BME280;8809;51.892;8.384;2023-04-10T15:27:20;100299.34;;;18.05;46.59
17383;BME280;8809;51.892;8.384;2023-04-10T15:29:47;100301.09;;;18.09;43.22
17383;BME280;8809;51.892;8.384;2023-04-10T15:32:14;100301.03;;;17.99;42.81
17383;BME280;8809;51.892;8.384;2023-04-10T15:34:42;100288.69;;;17.93;46.87
17383;BME280;8809;51.892;8.384;2023-04-10T15:37:09;100290.41;;;17.90;42.74
17383;BME280;8809;51.892;8.384;2023-04-10T15:39:37;100287.75;;;17.88;43.95
17383;BME280;8809;51.892;8.384;2023-04-10T15:42:05;100274.53;;;17.82;43.12
17383;BME280;8809;51.892;8.384;2023-04-10T15:44:35;100278.94;;;17.83;46.50
17383;BME280;8809;51.892;8.384;2023-04-10T15:47:02;100270.13;;;17.81;46.20
17383;BME280;8809;51.892;8.384;2023-04-10T15:49:29;100260.41;;;17.78;46.71
17383;BME280;8809;51.892;8.384;2023-04-10T15:51:57;100271.00;;;17.77;46.51
17383;BME280;8809;51.892;8.384;2023-04-10T15:54:24;100261.31;;;17.76;47.24
17383;BME280;8809;51.892;8.384;2023-04-10T15:56:50;100266.59;;;17.77;45.04
17383;BME280;8809;51.892;8.384;2023-04-10T15:59:17;100265.63;;;17.71;45.17
17383;BME280;8809;51.892;8.384;2023-04-10T16:01:46;100272.63;;;17.64;45.12
17383;BME280;8809;51.892;8.384;2023-04-10T16:04:13;100261.13;;;17.56;45.55
17383;BME280;8809;51.892;8.384;2023-04-10T16:06:40;100259.34;;;17.55;45.05
17383;BME280;8809;51.892;8.384;2023-04-10T16:09:07;100251.38;;;17.51;44.91
17383;BME280;8809;51.892;8.384;2023-04-10T16:11:34;100254.00;;;17.46;44.93
17383;BME280;8809;51.892;8.384;2023-04-10T16:14:01;100248.66;;;17.41;43.64
17383;BME280;8809;51.892;8.384;2023-04-10T16:16:29;100258.38;;;17.46;42.33
17383;BME280;8809;51.892;8.384;2023-04-10T16:18:57;100261.00;;;17.44;44.79
17383;BME280;8809;51.892;8.384;2023-04-10T16:21:25;100256.53;;;17.34;42.86
17383;BME280;8809;51.892;8.384;2023-04-10T16:23:52;100260.84;;;17.26;42.97
17383;BME280;8809;51.892;8.384;2023-04-10T16:26:19;100252.88;;;17.21;43.66
17383;BME280;8809;51.892;8.384;2023-04-10T16:28:46;100247.59;;;17.18;45.06
17383;BME280;8809;51.892;8.384;2023-04-10T16:31:13;100247.59;;;17.17;45.82
17383;BME280;8809;51.892;8.384;2023-04-10T16:33:40;100242.22;;;17.06;45.57
17383;BME280;8809;51.892;8.384;2023-04-10T16:36:09;100228.13;;;17.04;48.11
17383;BME280;8809;51.892;8.384;2023-04-10T16:38:36;100226.34;;;17.03;45.48
17383;BME280;8809;51.892;8.384;2023-04-10T16:41:04;100229.84;;;17.02;46.20
17383;BME280;8809;51.892;8.384;2023-04-10T16:43:31;100230.69;;;16.95;46.08
17383;BME280;8809;51.892;8.384;2023-04-10T16:45:59;100227.13;;;16.93;46.19
17383;BME280;8809;51.892;8.384;2023-04-10T16:48:26;100214.81;;;16.92;47.30
17383;BME280;8809;51.892;8.384;2023-04-10T16:50:53;100216.56;;;16.87;48.11
17383;BME280;8809;51.892;8.384;2023-04-10T16:53:21;100217.38;;;16.81;47.15
17383;BME280;8809;51.892;8.384;2023-04-10T16:55:55;100212.94;;;16.77;47.19
17383;BME280;8809;51.892;8.384;2023-04-10T16:58:23;100209.38;;;16.74;46.38
17383;BME280;8809;51.892;8.384;2023-04-10T17:00:50;100197.06;;;16.69;47.12
17383;BME280;8809;51.892;8.384;2023-04-10T17:03:17;100187.38;;;16.68;48.62
17383;BME280;8809;51.892;8.384;2023-04-10T17:05:45;100188.25;;;16.67;50.41
17383;BME280;8809;51.892;8.384;2023-04-10T17:08:12;100189.97;;;16.64;49.25
17383;BME280;8809;51.892;8.384;2023-04-10T17:10:41;100182.91;;;16.63;51.63
17383;BME280;8809;51.892;8.384;2023-04-10T17:13:08;100178.44;;;16.57;50.56
17383;BME280;8809;51.892;8.384;2023-04-10T17:15:35;100177.50;;;16.49;49.50
17383;BME280;8809;51.892;8.384;2023-04-10T17:18:05;100163.38;;;16.41;49.23
17383;BME280;8809;51.892;8.384;2023-04-10T17:20:34;100162.50;;;16.42;49.68
17383;BME280;8809;51.892;8.384;2023-04-10T17:23:01;100153.63;;;16.36;49.50
17383;BME280;8809;51.892;8.384;2023-04-10T17:25:29;100145.72;;;16.34;50.79
17383;BME280;8809;51.892;8.384;2023-04-10T17:27:57;100141.31;;;16.30;49.90
17383;BME280;8809;51.892;8.384;2023-04-10T17:30:25;100138.66;;;16.28;50.36
17383;BME280;8809;51.892;8.384;2023-04-10T17:32:52;100143.81;;;16.21;50.34
17383;BME280;8809;51.892;8.384;2023-04-10T17:35:21;100140.31;;;16.20;50.54
17383;BME280;8809;51.892;8.384;2023-04-10T17:37:50;100134.09;;;16.12;49.54
17383;BME280;8809;51.892;8.384;2023-04-10T17:40:17;100114.78;;;16.15;55.10
17383;BME280;8809;51.892;8.384;2023-04-10T17:42:45;100117.38;;;16.09;49.26
17383;BME280;8809;51.892;8.384;2023-04-10T17:45:14;100099.78;;;16.06;47.11
17383;BME280;8809;51.892;8.384;2023-04-10T17:47:41;100102.44;;;16.08;47.61
17383;BME280;8809;51.892;8.384;2023-04-10T17:50:08;100104.16;;;16.04;47.94
17383;BME280;8809;51.892;8.384;2023-04-10T17:52:37;100097.97;;;16.01;50.69
17383;BME280;8809;51.892;8.384;2023-04-10T17:55:05;100087.47;;;16.02;45.93
17383;BME280;8809;51.892;8.384;2023-04-10T17:57:33;100083.94;;;16.00;45.46
17383;BME280;8809;51.892;8.384;2023-04-10T18:00:02;100075.13;;;15.95;44.33
17383;BME280;8809;51.892;8.384;2023-04-10T18:02:33;100075.97;;;15.95;44.37
17383;BME280;8809;51.892;8.384;2023-04-10T18:05:00;100078.59;;;15.95;45.49
17383;BME280;8809;51.892;8.384;2023-04-10T18:07:28;100077.72;;;15.93;44.26
17383;BME280;8809;51.892;8.384;2023-04-10T18:09:55;100077.69;;;15.90;44.94
17383;BME280;8809;51.892;8.384;2023-04-10T18:12:22;100084.66;;;15.85;45.15
17383;BME280;8809;51.892;8.384;2023-04-10T18:14:49;100078.50;;;15.86;45.96
17383;BME280;8809;51.892;8.384;2023-04-10T18:17:16;100081.97;;;15.82;46.35
17383;BME280;8809;51.892;8.384;2023-04-10T18:19:45;100070.50;;;15.77;45.68
17383;BME280;8809;51.892;8.384;2023-04-10T18:22:12;100067.00;;;15.75;46.25
17383;BME280;8809;51.892;8.384;2023-04-10T18:24:39;100065.16;;;15.70;47.14
17383;BME280;8809;51.892;8.384;2023-04-10T18:27:06;100062.56;;;15.71;46.83
17383;BME280;8809;51.892;8.384;2023-04-10T18:29:33;100060.75;;;15.66;45.63
17383;BME280;8809;51.892;8.384;2023-04-10T18:32:00;100058.16;;;15.70;45.02
17383;BME280;8809;51.892;8.384;2023-04-10T18:34:27;100064.25;;;15.68;45.32
17383;BME280;8809;51.892;8.384;2023-04-10T18:36:56;100075.63;;;15.67;45.35
17383;BME280;8809;51.892;8.384;2023-04-10T18:39:24;100069.50;;;15.68;45.21
17383;BME280;8809;51.892;8.384;2023-04-10T18:41:51;100064.28;;;15.69;45.39
17383;BME280;8809;51.892;8.384;2023-04-10T18:44:18;100066.00;;;15.67;45.56
17383;BME280;8809;51.892;8.384;2023-04-10T18:46:45;100067.75;;;15.68;45.39
17383;BME280;8809;51.892;8.384;2023-04-10T18:49:12;100068.63;;;15.67;45.43
17383;BME280;8809;51.892;8.384;2023-04-10T18:51:40;100068.59;;;15.64;45.58
17383;BME280;8809;51.892;8.384;2023-04-10T18:54:11;100065.13;;;15.68;44.68
17383;BME280;8809;51.892;8.384;2023-04-10T18:56:39;100069.50;;;15.68;43.79
17383;BME280;8809;51.892;8.384;2023-04-10T18:59:05;100072.16;;;15.69;44.30
17383;BME280;8809;51.892;8.384;2023-04-10T19:01:32;100076.59;;;15.72;44.58
17383;BME280;8809;51.892;8.384;2023-04-10T19:04:00;100072.22;;;15.72;44.99
17383;BME280;8809;51.892;8.384;2023-04-10T19:06:27;100078.31;;;15.70;45.93
17383;BME280;8809;51.892;8.384;2023-04-10T19:08:54;100083.53;;;15.68;46.94
17383;BME280;8809;51.892;8.384;2023-04-10T19:11:23;100083.53;;;15.68;46.18
17383;BME280;8809;51.892;8.384;2023-04-10T19:13:50;100103.72;;;15.69;45.94
17383;BME280;8809;51.892;8.384;2023-04-10T19:16:17;100115.06;;;15.67;47.15
17383;BME280;8809;51.892;8.384;2023-04-10T19:18:45;100119.47;;;15.66;47.54
17383;BME280;8809;51.892;8.384;2023-04-10T19:21:12;100109.06;;;15.75;49.99
17383;BME280;8809;51.892;8.384;2023-04-10T19:23:39;100116.06;;;15.76;52.05
17383;BME280;8809;51.892;8.384;2023-04-10T19:26:06;100111.50;;;15.62;56.26
17383;BME280;8809;51.892;8.384;2023-04-10T19:28:36;100128.63;;;15.34;61.90
17383;BME280;8809;51.892;8.384;2023-04-10T19:31:04;100129.09;;;15.10;67.57
17383;BME280;8809;51.892;8.384;2023-04-10T19:33:31;100133.94;;;14.84;75.53
17383;BME280;8809;51.892;8.384;2023-04-10T19:35:58;100134.75;;;14.33;85.70
17383;BME280;8809;51.892;8.384;2023-04-10T19:38:25;100135.53;;;13.86;90.33
17383;BME280;8809;51.892;8.384;2023-04-10T19:40:53;100131.47;;;13.58;91.95
17383;BME280;8809;51.892;8.384;2023-04-10T19:43:21;100131.56;;;13.23;97.64
17383;BME280;8809;51.892;8.384;2023-04-10T19:45:49;100125.47;;;12.90;100.00
17383;BME280;8809;51.892;8.384;2023-04-10T19:48:17;100119.22;;;12.83;100.00
17383;BME280;8809;51.892;8.384;2023-04-10T19:50:45;100107.31;;;12.61;100.00
17383;BME280;8809;51.892;8.384;2023-04-10T19:53:14;100100.03;;;12.50;100.00
17383;BME280;8809;51.892;8.384;2023-04-10T19:55:43;100084.00;;;12.36;100.00
17383;BME280;8809;51.892;8.384;2023-04-10T19:58:10;100078.66;;;12.33;100.00
17383;BME280;8809;51.892;8.384;2023-04-10T20:00:37;100065.53;;;12.32;100.00
17383;BME280;8809;51.892;8.384;2023-04-10T20:03:06;100063.06;;;12.36;100.00
17383;BME280;8809;51.892;8.384;2023-04-10T20:05:33;100056.06;;;12.35;100.00
17383;BME280;8809;51.892;8.384;2023-04-10T20:08:01;100052.47;;;12.30;100.00
17383;BME280;8809;51.892;8.384;2023-04-10T20:10:28;100039.38;;;12.32;100.00
17383;BME280;8809;51.892;8.384;2023-04-10T20:12:55;100041.16;;;12.33;100.00
17383;BME280;8809;51.892;8.384;2023-04-10T20:15:23;100029.06;;;12.36;100.00
17383;BME280;8809;51.892;8.384;2023-04-10T20:17:50;100027.41;;;12.40;100.00
17383;BME280;8809;51.892;8.384;2023-04-10T20:20:19;100024.00;;;12.44;100.00
17383;BME280;8809;51.892;8.384;2023-04-10T20:22:46;100011.91;;;12.47;100.00
17383;BME280;8809;51.892;8.384;2023-04-10T20:25:13;100014.56;;;12.50;100.00
17383;BME280;8809;51.892;8.384;2023-04-10T20:27:40;100006.75;;;12.52;100.00
17383;BME280;8809;51.892;8.384;2023-04-10T20:30:08;99998.06;;;12.53;100.00
17383;BME280;8809;51.892;8.384;2023-04-10T20:32:35;99992.75;;;12.50;100.00
17383;BME280;8809;51.892;8.384;2023-04-10T20:35:02;99991.66;;;12.40;100.00
17383;BME280;8809;51.892;8.384;2023-04-10T20:37:31;100000.38;;;12.39;100.00
17383;BME280;8809;51.892;8.384;2023-04-10T20:39:59;100004.31;;;12.23;100.00
17383;BME280;8809;51.892;8.384;2023-04-10T20:42:29;100006.69;;;12.14;100.00
17383;BME280;8809;51.892;8.384;2023-04-10T20:44:56;99999.66;;;12.12;100.00
17383;BME280;8809;51.892;8.384;2023-04-10T20:47:24;100002.16;;;12.07;100.00
17383;BME280;8809;51.892;8.384;2023-04-10T20:49:51;99998.53;;;12.01;100.00
17383;BME280;8809;51.892;8.384;2023-04-10T20:52:17;100007.06;;;11.95;100.00
17383;BME280;8809;51.892;8.384;2023-04-10T20:54:46;100003.03;;;11.75;100.00
17383;BME280;8809;51.892;8.384;2023-04-10T20:57:13;100015.91;;;11.69;100.00
17383;BME280;8809;51.892;8.384;2023-04-10T20:59:40;100014.81;;;11.61;100.00
17383;BME280;8809;51.892;8.384;2023-04-10T21:02:07;100010.22;;;11.52;100.00
17383;BME280;8809;51.892;8.384;2023-04-10T21:04:34;100020.53;;;11.47;100.00
17383;BME280;8809;51.892;8.384;2023-04-10T21:07:01;100028.25;;;11.43;100.00
17383;BME280;8809;51.892;8.384;2023-04-10T21:09:28;100025.44;;;11.37;100.00
17383;BME280;8809;51.892;8.384;2023-04-10T21:11:57;100028.81;;;11.33;100.00
17383;BME280;8809;51.892;8.384;2023-04-10T21:14:24;100041.63;;;11.25;100.00
17383;BME280;8809;51.892;8.384;2023-04-10T21:16:51;100039.69;;;11.18;100.00
17383;BME280;8809;51.892;8.384;2023-04-10T21:19:18;100039.72;;;11.20;100.00
17383;BME280;8809;51.892;8.384;2023-04-10T21:21:45;100039.78;;;11.21;100.00
17383;BME280;8809;51.892;8.384;2023-04-10T21:24:12;100049.06;;;11.11;100.00
17383;BME280;8809;51.892;8.384;2023-04-10T21:26:39;100037.84;;;11.14;100.00
17383;BME280;8809;51.892;8.384;2023-04-10T21:29:07;100035.06;;;11.09;100.00
17383;BME280;8809;51.892;8.384;2023-04-10T21:31:35;100035.03;;;11.08;100.00
17383;BME280;8809;51.892;8.384;2023-04-10T21:34:03;100035.72;;;11.02;100.00
17383;BME280;8809;51.892;8.384;2023-04-10T21:36:30;100028.59;;;10.97;100.00
17383;BME280;8809;51.892;8.384;2023-04-10T21:38:58;100032.97;;;10.98;100.00
17383;BME280;8809;51.892;8.384;2023-04-10T21:41:25;100025.13;;;10.98;100.00
17383;BME280;8809;51.892;8.384;2023-04-10T21:43:52;100025.09;;;10.96;100.00
17383;BME280;8809;51.892;8.384;2023-04-10T21:46:23;100023.19;;;10.91;100.00
17383;BME280;8809;51.892;8.384;2023-04-10T21:48:50;100023.19;;;10.91;100.00
17383;BME280;8809;51.892;8.384;2023-04-10T21:51:17;100021.13;;;10.81;100.00
17383;BME280;8809;51.892;8.384;2023-04-10T21:53:44;100005.38;;;10.77;100.00
17383;BME280;8809;51.892;8.384;2023-04-10T21:56:11;99993.75;;;10.68;100.00
17383;BME280;8809;51.892;8.384;2023-04-10T21:58:38;99994.56;;;10.65;100.00
17383;BME280;8809;51.892;8.384;2023-04-10T22:01:06;99999.97;;;10.71;100.00
17383;BME280;8809;51.892;8.384;2023-04-10T22:03:35;100003.28;;;10.66;100.00
17383;BME280;8809;51.892;8.384;2023-04-10T22:06:02;100010.22;;;10.65;100.00
17383;BME280;8809;51.892;8.384;2023-04-10T22:08:29;100003.19;;;10.63;100.00
17383;BME280;8809;51.892;8.384;2023-04-10T22:10:56;100008.28;;;10.60;100.00
17383;BME280;8809;51.892;8.384;2023-04-10T22:13:23;99998.34;;;10.48;100.00
17383;BME280;8809;51.892;8.384;2023-04-10T22:15:50;100000.94;;;10.48;100.00
17383;BME280;8809;51.892;8.384;2023-04-10T22:18:18;99993.00;;;10.44;100.00
17383;BME280;8809;51.892;8.384;2023-04-10T22:20:46;99997.22;;;10.40;100.00
17383;BME280;8809;51.892;8.384;2023-04-10T22:23:13;99989.25;;;10.35;100.00
17383;BME280;8809;51.892;8.384;2023-04-10T22:25:40;100003.97;;;10.33;100.00
17383;BME280;8809;51.892;8.384;2023-04-10T22:28:08;99989.94;;;10.30;100.00
17383;BME280;8809;51.892;8.384;2023-04-10T22:30:35;99980.25;;;10.26;100.00
17383;BME280;8809;51.892;8.384;2023-04-10T22:33:02;99954.25;;;10.29;100.00
17383;BME280;8809;51.892;8.384;2023-04-10T22:35:30;99930.78;;;10.27;100.00
17383;BME280;8809;51.892;8.384;2023-04-10T22:37:58;99917.69;;;10.26;100.00
17383;BME280;8809;51.892;8.384;2023-04-10T22:40:28;99912.25;;;10.20;100.00
17383;BME280;8809;51.892;8.384;2023-04-10T22:42:55;99909.44;;;10.14;100.00
17383;BME280;8809;51.892;8.384;2023-04-10T22:45:22;99918.78;;;10.07;100.00
17383;BME280;8809;51.892;8.384;2023-04-10T22:47:49;99950.97;;;10.08;100.00
17383;BME280;8809;51.892;8.384;2023-04-10T22:50:16;99925.72;;;10.07;100.00
17383;BME280;8809;51.892;8.384;2023-04-10T22:52:43;99913.47;;;10.04;100.00
17383;BME280;8809;51.892;8.384;2023-04-10T22:55:12;99896.91;;;10.02;100.00
17383;BME280;8809;51.892;8.384;2023-04-10T22:57:39;99895.09;;;9.99;100.00
17383;BME280;8809;51.892;8.384;2023-04-10T23:00:08;99945.31;;;9.95;100.00
17383;BME280;8809;51.892;8.384;2023-04-10T23:02:35;99947.81;;;9.92;100.00
17383;BME280;8809;51.892;8.384;2023-04-10T23:05:03;99921.72;;;9.91;100.00
17383;BME280;8809;51.892;8.384;2023-04-10T23:07:30;99932.13;;;9.91;100.00
17383;BME280;8809;51.892;8.384;2023-04-10T23:09:58;99945.09;;;9.88;100.00
17383;BME280;8809;51.892;8.384;2023-04-10T23:12:27;99904.28;;;9.88;100.00
17383;BME280;8809;51.892;8.384;2023-04-10T23:14:54;99923.41;;;9.89;100.00
17383;BME280;8809;51.892;8.384;2023-04-10T23:17:21;99899.97;;;9.89;100.00
17383;BME280;8809;51.892;8.384;2023-04-10T23:19:49;99873.94;;;9.90;100.00
17383;BME280;8809;51.892;8.384;2023-04-10T23:22:16;99877.28;;;9.86;100.00
17383;BME280;8809;51.892;8.384;2023-04-10T23:24:43;99870.25;;;9.84;100.00
17383;BME280;8809;51.892;8.384;2023-04-10T23:27:10;99859.78;;;9.82;100.00
17383;BME280;8809;51.892;8.384;2023-04-10T23:29:38;99844.06;;;9.79;100.00
17383;BME280;8809;51.892;8.384;2023-04-10T23:32:05;99837.97;;;9.79;100.00
17383;BME280;8809;51.892;8.384;2023-04-10T23:34:32;99844.91;;;9.78;100.00
17383;BME280;8809;51.892;8.384;2023-04-10T23:36:59;99844.06;;;9.79;100.00
17383;BME280;8809;51.892;8.384;2023-04-10T23:39:26;99843.97;;;9.76;100.00
17383;BME280;8809;51.892;8.384;2023-04-10T23:41:54;99843.03;;;9.74;100.00
17383;BME280;8809;51.892;8.384;2023-04-10T23:44:21;99826.44;;;9.72;100.00
17383;BME280;8809;51.892;8.384;2023-04-10T23:46:50;99835.06;;;9.70;100.00
17383;BME280;8809;51.892;8.384;2023-04-10T23:49:17;99837.56;;;9.66;100.00
17383;BME280;8809;51.892;8.384;2023-04-10T23:51:44;99845.31;;;9.65;100.00
17383;BME280;8809;51.892;8.384;2023-04-10T23:54:11;99839.94;;;9.59;100.00
17383;BME280;8809;51.892;8.384;2023-04-10T23:56:39;99848.56;;;9.58;100.00
17383;BME280;8809;51.892;8.384;2023-04-10T23:59:06;99856.38;;;9.58;100.00
